sensor_id;sensor_type;location;lat;lon;timestamp;pressure;altitude;pressure_sealevel;temperature;humidity
61506;BME280;47366;51.916;4.574;2022-07-01T00:01:46;101545.06;;;15.17;79.30
61506;BME280;47366;51.916;4.574;2022-07-01T00:04:13;101547.56;;;15.07;79.44
61506;BME280;47366;51.916;4.574;2022-07-01T00:06:38;101560.22;;;15.08;79.63
61506;BME280;47366;51.916;4.574;2022-07-01T00:09:04;101559.56;;;15.04;79.40
61506;BME280;47366;51.916;4.574;2022-07-01T00:11:30;101561.53;;;15.02;79.59
61506;BME280;47366;51.916;4.574;2022-07-01T00:13:56;101551.88;;;14.97;79.86
61506;BME280;47366;51.916;4.574;2022-07-01T00:16:21;101540.63;;;14.89;81.58
61506;BME280;47366;51.916;4.574;2022-07-01T00:18:47;101534.31;;;14.88;80.34
61506;BME280;47366;51.916;4.574;2022-07-01T00:21:12;101550.56;;;14.90;79.61
61506;BME280;47366;51.916;4.574;2022-07-01T00:23:37;101549.59;;;14.91;80.23
61506;BME280;47366;51.916;4.574;2022-07-01T00:26:03;101538.53;;;14.79;80.88
61506;BME280;47366;51.916;4.574;2022-07-01T00:28:28;101551.75;;;14.85;80.28
61506;BME280;47366;51.916;4.574;2022-07-01T00:30:54;101560.81;;;14.86;80.34
61506;BME280;47366;51.916;4.574;2022-07-01T00:33:19;101565.59;;;14.82;81.07
61506;BME280;47366;51.916;4.574;2022-07-01T00:35:44;101562.56;;;14.87;81.51
61506;BME280;47366;51.916;4.574;2022-07-01T00:38:10;101556.44;;;14.83;81.82
61506;BME280;47366;51.916;4.574;2022-07-01T00:40:35;101562.13;;;14.80;80.16
61506;BME280;47366;51.916;4.574;2022-07-01T00:43:01;101563.44;;;14.88;80.39
61506;BME280;47366;51.916;4.574;2022-07-01T00:45:26;101541.16;;;14.81;81.45
61506;BME280;47366;51.916;4.574;2022-07-01T00:47:52;101550.69;;;14.88;80.93
61506;BME280;47366;51.916;4.574;2022-07-01T00:50:17;101556.00;;;14.90;81.75
61506;BME280;47366;51.916;4.574;2022-07-01T00:52:44;101550.38;;;14.93;80.91
61506;BME280;47366;51.916;4.574;2022-07-01T00:55:12;101537.81;;;14.90;81.51
61506;BME280;47366;51.916;4.574;2022-07-01T00:57:40;101550.56;;;14.90;81.56
61506;BME280;47366;51.916;4.574;2022-07-01T01:00:08;101540.09;;;14.83;80.85
61506;BME280;47366;51.916;4.574;2022-07-01T01:02:35;101545.09;;;14.90;80.71
61506;BME280;47366;51.916;4.574;2022-07-01T01:05:02;101536.59;;;14.81;79.94
61506;BME280;47366;51.916;4.574;2022-07-01T01:07:28;101542.50;;;14.88;79.49
61506;BME280;47366;51.916;4.574;2022-07-01T01:09:55;101540.63;;;14.89;80.26
61506;BME280;47366;51.916;4.574;2022-07-01T01:12:21;101540.72;;;14.87;80.19
61506;BME280;47366;51.916;4.574;2022-07-01T01:14:50;101535.72;;;14.81;80.25
61506;BME280;47366;51.916;4.574;2022-07-01T01:17:16;101551.41;;;14.77;80.81
61506;BME280;47366;51.916;4.574;2022-07-01T01:19:43;101543.44;;;14.74;81.26
61506;BME280;47366;51.916;4.574;2022-07-01T01:22:09;101552.38;;;14.76;80.64
61506;BME280;47366;51.916;4.574;2022-07-01T01:24:38;101546.84;;;14.78;80.59
61506;BME280;47366;51.916;4.574;2022-07-01T01:27:04;101557.53;;;14.81;80.73
61506;BME280;47366;51.916;4.574;2022-07-01T01:29:30;101550.63;;;14.75;80.60
61506;BME280;47366;51.916;4.574;2022-07-01T01:31:56;101548.97;;;14.73;80.58
61506;BME280;47366;51.916;4.574;2022-07-01T01:34:21;101540.38;;;14.66;81.32
61506;BME280;47366;51.916;4.574;2022-07-01T01:36:46;101548.34;;;14.69;81.07
61506;BME280;47366;51.916;4.574;2022-07-01T01:39:12;101567.19;;;14.72;81.95
61506;BME280;47366;51.916;4.574;2022-07-01T01:41:39;101587.16;;;14.73;82.02
61506;BME280;47366;51.916;4.574;2022-07-01T01:44:05;101587.38;;;14.70;82.31
61506;BME280;47366;51.916;4.574;2022-07-01T01:46:30;101586.41;;;14.71;80.37
61506;BME280;47366;51.916;4.574;2022-07-01T01:48:57;101580.06;;;14.70;81.92
61506;BME280;47366;51.916;4.574;2022-07-01T01:51:23;101580.75;;;14.74;81.67
61506;BME280;47366;51.916;4.574;2022-07-01T01:53:49;101574.19;;;14.63;81.60
61506;BME280;47366;51.916;4.574;2022-07-01T01:56:14;101583.00;;;14.67;82.49
61506;BME280;47366;51.916;4.574;2022-07-01T01:58:39;101567.81;;;14.63;80.75
61506;BME280;47366;51.916;4.574;2022-07-01T02:01:08;101562.28;;;14.64;81.39
61506;BME280;47366;51.916;4.574;2022-07-01T02:03:35;101553.75;;;14.56;80.99
61506;BME280;47366;51.916;4.574;2022-07-01T02:06:00;101553.41;;;14.61;80.67
61506;BME280;47366;51.916;4.574;2022-07-01T02:08:25;101563.91;;;14.67;81.53
61506;BME280;47366;51.916;4.574;2022-07-01T02:10:51;101578.41;;;14.68;82.16
61506;BME280;47366;51.916;4.574;2022-07-01T02:13:16;101581.66;;;14.60;81.55
61506;BME280;47366;51.916;4.574;2022-07-01T02:15:41;101574.78;;;14.54;82.03
61506;BME280;47366;51.916;4.574;2022-07-01T02:18:06;101578.28;;;14.56;82.73
61506;BME280;47366;51.916;4.574;2022-07-01T02:20:32;101593.34;;;14.62;81.06
61506;BME280;47366;51.916;4.574;2022-07-01T02:22:59;101595.31;;;14.60;81.27
61506;BME280;47366;51.916;4.574;2022-07-01T02:25:24;101594.13;;;14.64;80.77
61506;BME280;47366;51.916;4.574;2022-07-01T02:27:49;101579.81;;;14.60;80.99
61506;BME280;47366;51.916;4.574;2022-07-01T02:30:15;101587.16;;;14.73;81.13
61506;BME280;47366;51.916;4.574;2022-07-01T02:32:40;101600.06;;;14.71;80.98
61506;BME280;47366;51.916;4.574;2022-07-01T02:35:06;101606.38;;;14.71;81.05
61506;BME280;47366;51.916;4.574;2022-07-01T02:37:31;101590.53;;;14.63;81.00
61506;BME280;47366;51.916;4.574;2022-07-01T02:39:58;101596.72;;;14.65;80.62
61506;BME280;47366;51.916;4.574;2022-07-01T02:42:23;101583.31;;;14.62;80.79
61506;BME280;47366;51.916;4.574;2022-07-01T02:44:51;101592.34;;;14.63;80.58
61506;BME280;47366;51.916;4.574;2022-07-01T02:47:16;101588.09;;;14.59;81.80
61506;BME280;47366;51.916;4.574;2022-07-01T02:49:42;101586.34;;;14.58;81.96
61506;BME280;47366;51.916;4.574;2022-07-01T02:52:07;101578.56;;;14.52;81.68
61506;BME280;47366;51.916;4.574;2022-07-01T02:54:32;101598.72;;;14.63;81.29
61506;BME280;47366;51.916;4.574;2022-07-01T02:56:57;101596.16;;;14.60;81.85
61506;BME280;47366;51.916;4.574;2022-07-01T02:59:23;101590.94;;;14.57;81.91
61506;BME280;47366;51.916;4.574;2022-07-01T03:01:48;101603.47;;;14.60;80.67
61506;BME280;47366;51.916;4.574;2022-07-01T03:04:13;101603.38;;;14.61;81.53
61506;BME280;47366;51.916;4.574;2022-07-01T03:06:39;101616.34;;;14.58;81.10
61506;BME280;47366;51.916;4.574;2022-07-01T03:09:06;101599.31;;;14.54;81.03
61506;BME280;47366;51.916;4.574;2022-07-01T03:11:31;101612.66;;;14.59;81.53
61506;BME280;47366;51.916;4.574;2022-07-01T03:13:56;101595.09;;;14.49;81.13
61506;BME280;47366;51.916;4.574;2022-07-01T03:16:21;101593.16;;;14.51;81.57
61506;BME280;47366;51.916;4.574;2022-07-01T03:18:47;101589.06;;;14.58;81.02
61506;BME280;47366;51.916;4.574;2022-07-01T03:21:12;101593.66;;;14.57;80.71
61506;BME280;47366;51.916;4.574;2022-07-01T03:23:38;101578.75;;;14.49;80.83
61506;BME280;47366;51.916;4.574;2022-07-01T03:26:03;101585.19;;;14.48;81.12
61506;BME280;47366;51.916;4.574;2022-07-01T03:28:28;101586.56;;;14.55;80.67
61506;BME280;47366;51.916;4.574;2022-07-01T03:30:54;101605.03;;;14.50;80.91
61506;BME280;47366;51.916;4.574;2022-07-01T03:33:19;101593.56;;;14.44;80.48
61506;BME280;47366;51.916;4.574;2022-07-01T03:35:44;101602.69;;;14.43;81.06
61506;BME280;47366;51.916;4.574;2022-07-01T03:38:12;101607.50;;;14.40;81.04
61506;BME280;47366;51.916;4.574;2022-07-01T03:40:38;101621.91;;;14.42;81.76
61506;BME280;47366;51.916;4.574;2022-07-01T03:43:04;101622.00;;;14.40;81.67
61506;BME280;47366;51.916;4.574;2022-07-01T03:45:30;101622.97;;;14.39;81.98
61506;BME280;47366;51.916;4.574;2022-07-01T03:47:56;101624.16;;;14.35;81.44
61506;BME280;47366;51.916;4.574;2022-07-01T03:50:22;101630.09;;;14.42;81.24
61506;BME280;47366;51.916;4.574;2022-07-01T03:52:48;101636.41;;;14.42;81.50
61506;BME280;47366;51.916;4.574;2022-07-01T03:55:14;101646.31;;;14.43;81.25
61506;BME280;47366;51.916;4.574;2022-07-01T03:57:41;101644.31;;;14.33;82.34
61506;BME280;47366;51.916;4.574;2022-07-01T04:00:07;101638.72;;;14.34;81.63
61506;BME280;47366;51.916;4.574;2022-07-01T04:02:33;101645.97;;;14.35;81.12
61506;BME280;47366;51.916;4.574;2022-07-01T04:04:58;101647.69;;;14.36;81.08
61506;BME280;47366;51.916;4.574;2022-07-01T04:07:24;101634.66;;;14.27;81.89
61506;BME280;47366;51.916;4.574;2022-07-01T04:09:51;101645.38;;;14.30;81.62
61506;BME280;47366;51.916;4.574;2022-07-01T04:12:17;101652.94;;;14.25;82.00
61506;BME280;47366;51.916;4.574;2022-07-01T04:14:44;101656.88;;;14.21;81.74
61506;BME280;47366;51.916;4.574;2022-07-01T04:17:09;101654.44;;;14.16;81.19
61506;BME280;47366;51.916;4.574;2022-07-01T04:19:35;101649.00;;;14.16;81.98
61506;BME280;47366;51.916;4.574;2022-07-01T04:22:01;101643.25;;;14.21;82.11
61506;BME280;47366;51.916;4.574;2022-07-01T04:24:45;101640.09;;;14.27;82.52
61506;BME280;47366;51.916;4.574;2022-07-01T04:27:10;101643.34;;;14.19;81.00
61506;BME280;47366;51.916;4.574;2022-07-01T04:29:36;101652.59;;;14.17;82.48
61506;BME280;47366;51.916;4.574;2022-07-01T04:32:01;101666.00;;;14.20;81.66
61506;BME280;47366;51.916;4.574;2022-07-01T04:34:27;101668.34;;;14.12;82.19
61506;BME280;47366;51.916;4.574;2022-07-01T04:36:52;101671.75;;;14.15;82.69
61506;BME280;47366;51.916;4.574;2022-07-01T04:39:18;101664.56;;;14.14;82.42
61506;BME280;47366;51.916;4.574;2022-07-01T04:41:44;101675.16;;;14.19;82.56
61506;BME280;47366;51.916;4.574;2022-07-01T04:44:30;101685.28;;;14.17;81.65
61506;BME280;47366;51.916;4.574;2022-07-01T04:46:57;101670.88;;;14.15;82.44
61506;BME280;47366;51.916;4.574;2022-07-01T04:49:23;101657.44;;;14.12;81.96
61506;BME280;47366;51.916;4.574;2022-07-01T04:51:48;101654.72;;;14.12;81.97
61506;BME280;47366;51.916;4.574;2022-07-01T04:54:14;101663.28;;;14.20;82.02
61506;BME280;47366;51.916;4.574;2022-07-01T04:56:39;101675.94;;;14.21;81.66
61506;BME280;47366;51.916;4.574;2022-07-01T04:59:05;101662.91;;;14.12;81.94
61506;BME280;47366;51.916;4.574;2022-07-01T05:01:31;101688.00;;;14.17;82.03
61506;BME280;47366;51.916;4.574;2022-07-01T05:03:57;101694.91;;;14.22;82.27
61506;BME280;47366;51.916;4.574;2022-07-01T05:06:22;101695.59;;;14.26;81.90
61506;BME280;47366;51.916;4.574;2022-07-01T05:08:49;101699.97;;;14.29;81.11
61506;BME280;47366;51.916;4.574;2022-07-01T05:11:14;101701.84;;;14.28;81.73
61506;BME280;47366;51.916;4.574;2022-07-01T05:13:40;101685.47;;;14.14;81.34
61506;BME280;47366;51.916;4.574;2022-07-01T05:16:06;101701.84;;;14.28;82.13
61506;BME280;47366;51.916;4.574;2022-07-01T05:18:33;101696.84;;;14.35;81.09
61506;BME280;47366;51.916;4.574;2022-07-01T05:21:17;101702.22;;;14.36;82.40
61506;BME280;47366;51.916;4.574;2022-07-01T05:24:01;101694.91;;;14.37;81.93
61506;BME280;47366;51.916;4.574;2022-07-01T05:26:26;101685.75;;;14.38;82.45
61506;BME280;47366;51.916;4.574;2022-07-01T05:28:52;101699.88;;;14.44;81.33
61506;BME280;47366;51.916;4.574;2022-07-01T05:31:18;101696.56;;;14.39;81.27
61506;BME280;47366;51.916;4.574;2022-07-01T05:33:44;101694.44;;;14.44;81.99
61506;BME280;47366;51.916;4.574;2022-07-01T05:36:10;101696.56;;;14.54;81.39
61506;BME280;47366;51.916;4.574;2022-07-01T05:38:35;101691.81;;;14.57;81.03
61506;BME280;47366;51.916;4.574;2022-07-01T05:41:01;101704.72;;;14.68;80.84
61506;BME280;47366;51.916;4.574;2022-07-01T05:43:26;101706.41;;;14.71;80.67
61506;BME280;47366;51.916;4.574;2022-07-01T05:45:52;101702.88;;;14.83;81.54
61506;BME280;47366;51.916;4.574;2022-07-01T05:48:17;101694.69;;;14.83;80.85
61506;BME280;47366;51.916;4.574;2022-07-01T05:50:43;101704.22;;;14.90;80.50
61506;BME280;47366;51.916;4.574;2022-07-01T05:53:08;101700.03;;;14.84;80.69
61506;BME280;47366;51.916;4.574;2022-07-01T05:55:34;101692.56;;;14.74;81.16
61506;BME280;47366;51.916;4.574;2022-07-01T05:57:59;101678.53;;;14.65;80.61
61506;BME280;47366;51.916;4.574;2022-07-01T06:00:27;101688.06;;;14.73;81.42
61506;BME280;47366;51.916;4.574;2022-07-01T06:02:52;101689.72;;;14.75;80.88
61506;BME280;47366;51.916;4.574;2022-07-01T06:05:18;101682.81;;;14.70;80.26
61506;BME280;47366;51.916;4.574;2022-07-01T06:07:43;101679.41;;;14.80;80.33
61506;BME280;47366;51.916;4.574;2022-07-01T06:10:09;101685.59;;;14.82;80.55
61506;BME280;47366;51.916;4.574;2022-07-01T06:12:38;101695.78;;;14.80;80.06
61506;BME280;47366;51.916;4.574;2022-07-01T06:15:09;101691.66;;;14.88;80.36
61506;BME280;47366;51.916;4.574;2022-07-01T06:17:36;101697.25;;;14.99;80.06
61506;BME280;47366;51.916;4.574;2022-07-01T06:20:02;101691.50;;;15.03;80.04
61506;BME280;47366;51.916;4.574;2022-07-01T06:22:28;101696.25;;;15.14;79.59
61506;BME280;47366;51.916;4.574;2022-07-01T06:24:53;101701.75;;;15.27;78.95
61506;BME280;47366;51.916;4.574;2022-07-01T06:27:19;101701.03;;;15.38;79.07
61506;BME280;47366;51.916;4.574;2022-07-01T06:29:44;101704.66;;;15.51;78.93
61506;BME280;47366;51.916;4.574;2022-07-01T06:32:11;101708.66;;;15.73;78.13
61506;BME280;47366;51.916;4.574;2022-07-01T06:34:36;101706.16;;;15.82;78.12
61506;BME280;47366;51.916;4.574;2022-07-01T06:37:01;101699.19;;;15.91;77.42
61506;BME280;47366;51.916;4.574;2022-07-01T06:39:28;101691.75;;;15.93;77.29
61506;BME280;47366;51.916;4.574;2022-07-01T06:41:54;101696.03;;;15.97;77.15
61506;BME280;47366;51.916;4.574;2022-07-01T06:44:20;101684.88;;;16.00;77.18
61506;BME280;47366;51.916;4.574;2022-07-01T06:46:46;101680.81;;;16.06;77.04
61506;BME280;47366;51.916;4.574;2022-07-01T06:49:11;101677.19;;;16.18;76.52
61506;BME280;47366;51.916;4.574;2022-07-01T06:51:36;101682.44;;;16.34;75.84
61506;BME280;47366;51.916;4.574;2022-07-01T06:54:02;101691.00;;;16.42;76.28
61506;BME280;47366;51.916;4.574;2022-07-01T06:56:27;101694.78;;;16.52;76.15
61506;BME280;47366;51.916;4.574;2022-07-01T06:58:53;101710.63;;;16.60;75.46
61506;BME280;47366;51.916;4.574;2022-07-01T07:01:18;101695.94;;;16.74;75.44
61506;BME280;47366;51.916;4.574;2022-07-01T07:03:44;101684.34;;;16.83;75.25
61506;BME280;47366;51.916;4.574;2022-07-01T07:06:09;101699.94;;;16.94;75.38
61506;BME280;47366;51.916;4.574;2022-07-01T07:08:34;101691.28;;;17.00;74.26
61506;BME280;47366;51.916;4.574;2022-07-01T07:11:00;101696.19;;;17.08;73.99
61506;BME280;47366;51.916;4.574;2022-07-01T07:13:25;101701.81;;;16.93;73.58
61506;BME280;47366;51.916;4.574;2022-07-01T07:15:51;101699.56;;;17.11;73.86
61506;BME280;47366;51.916;4.574;2022-07-01T07:18:16;101686.59;;;17.02;73.99
61506;BME280;47366;51.916;4.574;2022-07-01T07:20:42;101694.72;;;17.15;74.65
61506;BME280;47366;51.916;4.574;2022-07-01T07:23:08;101700.69;;;17.33;72.92
61506;BME280;47366;51.916;4.574;2022-07-01T07:25:34;101716.28;;;17.44;72.85
61506;BME280;47366;51.916;4.574;2022-07-01T07:27:59;101716.78;;;17.49;73.49
61506;BME280;47366;51.916;4.574;2022-07-01T07:30:25;101719.66;;;17.47;72.62
61506;BME280;47366;51.916;4.574;2022-07-01T07:32:50;101727.41;;;17.29;72.98
61506;BME280;47366;51.916;4.574;2022-07-01T07:35:16;101733.00;;;17.28;72.99
61506;BME280;47366;51.916;4.574;2022-07-01T07:37:42;101713.97;;;17.26;71.16
61506;BME280;47366;51.916;4.574;2022-07-01T07:40:09;101732.28;;;17.37;71.56
61506;BME280;47366;51.916;4.574;2022-07-01T07:42:39;101726.03;;;17.59;71.74
61506;BME280;47366;51.916;4.574;2022-07-01T07:45:09;101723.59;;;17.67;71.11
61506;BME280;47366;51.916;4.574;2022-07-01T07:47:37;101725.56;;;17.65;71.13
61506;BME280;47366;51.916;4.574;2022-07-01T07:50:03;101745.50;;;17.67;71.50
61506;BME280;47366;51.916;4.574;2022-07-01T07:52:29;101736.25;;;17.81;71.15
61506;BME280;47366;51.916;4.574;2022-07-01T07:54:55;101727.84;;;18.07;69.74
61506;BME280;47366;51.916;4.574;2022-07-01T07:57:20;101721.16;;;18.22;68.88
61506;BME280;47366;51.916;4.574;2022-07-01T07:59:46;101727.00;;;18.40;67.53
61506;BME280;47366;51.916;4.574;2022-07-01T08:02:11;101732.13;;;18.44;68.98
61506;BME280;47366;51.916;4.574;2022-07-01T08:04:37;101737.25;;;18.49;69.03
61506;BME280;47366;51.916;4.574;2022-07-01T08:07:02;101734.75;;;18.35;67.94
61506;BME280;47366;51.916;4.574;2022-07-01T08:09:28;101734.50;;;18.38;68.58
61506;BME280;47366;51.916;4.574;2022-07-01T08:11:53;101738.59;;;18.66;68.21
61506;BME280;47366;51.916;4.574;2022-07-01T08:14:18;101723.00;;;18.33;67.24
61506;BME280;47366;51.916;4.574;2022-07-01T08:16:44;101748.94;;;18.40;68.03
61506;BME280;47366;51.916;4.574;2022-07-01T08:19:15;101750.97;;;18.38;67.16
61506;BME280;47366;51.916;4.574;2022-07-01T08:21:40;101740.84;;;18.61;65.25
61506;BME280;47366;51.916;4.574;2022-07-01T08:24:06;101740.38;;;18.56;67.06
61506;BME280;47366;51.916;4.574;2022-07-01T08:26:31;101753.56;;;18.39;66.62
61506;BME280;47366;51.916;4.574;2022-07-01T08:28:56;101755.94;;;18.33;66.12
61506;BME280;47366;51.916;4.574;2022-07-01T08:31:22;101744.72;;;18.58;65.63
61506;BME280;47366;51.916;4.574;2022-07-01T08:33:47;101755.72;;;18.70;65.21
61506;BME280;47366;51.916;4.574;2022-07-01T08:36:12;101758.09;;;18.74;66.47
61506;BME280;47366;51.916;4.574;2022-07-01T08:38:39;101776.44;;;18.85;65.78
61506;BME280;47366;51.916;4.574;2022-07-01T08:41:05;101766.97;;;18.89;65.54
61506;BME280;47366;51.916;4.574;2022-07-01T08:43:30;101771.91;;;19.18;64.26
61506;BME280;47366;51.916;4.574;2022-07-01T08:45:58;101766.13;;;19.32;62.21
61506;BME280;47366;51.916;4.574;2022-07-01T08:48:24;101775.16;;;19.66;63.57
61506;BME280;47366;51.916;4.574;2022-07-01T08:50:50;101784.25;;;19.78;62.99
61506;BME280;47366;51.916;4.574;2022-07-01T08:53:15;101789.03;;;19.76;63.16
61506;BME280;47366;51.916;4.574;2022-07-01T08:55:40;101786.59;;;19.83;60.68
61506;BME280;47366;51.916;4.574;2022-07-01T08:58:26;101782.66;;;19.97;62.02
61506;BME280;47366;51.916;4.574;2022-07-01T09:00:52;101786.69;;;20.13;59.27
61506;BME280;47366;51.916;4.574;2022-07-01T09:03:21;101781.88;;;20.27;60.77
61506;BME280;47366;51.916;4.574;2022-07-01T09:05:52;101781.59;;;20.09;60.96
61506;BME280;47366;51.916;4.574;2022-07-01T09:08:18;101794.28;;;20.21;59.53
61506;BME280;47366;51.916;4.574;2022-07-01T09:10:44;101795.69;;;20.36;59.79
61506;BME280;47366;51.916;4.574;2022-07-01T09:13:11;101798.00;;;20.31;58.18
61506;BME280;47366;51.916;4.574;2022-07-01T09:15:38;101787.84;;;20.32;57.50
61506;BME280;47366;51.916;4.574;2022-07-01T09:18:15;101798.56;;;20.35;56.66
61506;BME280;47366;51.916;4.574;2022-07-01T09:20:45;101798.56;;;20.14;58.47
61506;BME280;47366;51.916;4.574;2022-07-01T09:23:12;101786.69;;;20.13;59.14
61506;BME280;47366;51.916;4.574;2022-07-01T09:25:51;101780.06;;;20.37;58.93
61506;BME280;47366;51.916;4.574;2022-07-01T09:28:17;101797.16;;;20.62;58.38
61506;BME280;47366;51.916;4.574;2022-07-01T09:30:50;101795.41;;;20.82;57.61
61506;BME280;47366;51.916;4.574;2022-07-01T09:33:22;101791.94;;;20.58;54.43
61506;BME280;47366;51.916;4.574;2022-07-01T09:35:49;101798.41;;;20.27;58.81
61506;BME280;47366;51.916;4.574;2022-07-01T09:38:17;101805.84;;;20.15;59.42
61506;BME280;47366;51.916;4.574;2022-07-01T09:40:57;101787.16;;;20.19;57.64
61506;BME280;47366;51.916;4.574;2022-07-01T09:48:23;101807.31;;;20.19;58.46
61506;BME280;47366;51.916;4.574;2022-07-01T09:50:49;101806.09;;;20.54;58.06
61506;BME280;47366;51.916;4.574;2022-07-01T09:53:14;101816.53;;;20.71;57.70
61506;BME280;47366;51.916;4.574;2022-07-01T09:55:40;101805.97;;;20.34;56.39
61506;BME280;47366;51.916;4.574;2022-07-01T09:58:06;101812.59;;;20.53;57.54
61506;BME280;47366;51.916;4.574;2022-07-01T10:00:31;101816.22;;;20.53;57.40
61506;BME280;47366;51.916;4.574;2022-07-01T10:03:10;101820.34;;;20.59;56.45
61506;BME280;47366;51.916;4.574;2022-07-01T10:05:41;101832.25;;;20.90;57.32
61506;BME280;47366;51.916;4.574;2022-07-01T10:08:14;101834.66;;;21.05;55.33
61506;BME280;47366;51.916;4.574;2022-07-01T10:10:56;101841.41;;;20.91;55.83
61506;BME280;47366;51.916;4.574;2022-07-01T10:13:26;101836.44;;;20.64;56.26
61506;BME280;47366;51.916;4.574;2022-07-01T10:15:54;101832.50;;;20.56;54.63
61506;BME280;47366;51.916;4.574;2022-07-01T10:20:47;101836.84;;;20.59;54.06
61506;BME280;47366;51.916;4.574;2022-07-01T10:23:13;101840.75;;;20.77;54.13
61506;BME280;47366;51.916;4.574;2022-07-01T10:25:44;101854.56;;;21.18;53.53
61506;BME280;47366;51.916;4.574;2022-07-01T10:31:01;101864.25;;;21.12;51.62
61506;BME280;47366;51.916;4.574;2022-07-01T10:33:49;101865.00;;;21.14;50.80
61506;BME280;47366;51.916;4.574;2022-07-01T10:41:30;101852.78;;;21.07;47.75
61506;BME280;47366;51.916;4.574;2022-07-01T10:43:56;101857.75;;;20.62;53.46
61506;BME280;47366;51.916;4.574;2022-07-01T10:49:59;101843.84;;;21.25;52.40
61506;BME280;47366;51.916;4.574;2022-07-01T10:51:58;101852.84;;;21.27;49.45
61506;BME280;47366;51.916;4.574;2022-07-01T10:59:52;101831.25;;;21.82;50.23
61506;BME280;47366;51.916;4.574;2022-07-01T11:02:20;101844.16;;;22.01;50.46
61506;BME280;47366;51.916;4.574;2022-07-01T11:04:47;101838.50;;;22.12;49.42
61506;BME280;47366;51.916;4.574;2022-07-01T11:07:13;101837.50;;;22.13;48.96
61506;BME280;47366;51.916;4.574;2022-07-01T11:09:39;101834.13;;;21.80;46.70
61506;BME280;47366;51.916;4.574;2022-07-01T11:12:08;101838.22;;;21.76;48.83
61506;BME280;47366;51.916;4.574;2022-07-01T11:14:35;101834.59;;;22.15;49.51
61506;BME280;47366;51.916;4.574;2022-07-01T11:17:08;101837.38;;;22.34;46.44
61506;BME280;47366;51.916;4.574;2022-07-01T11:19:34;101827.19;;;22.15;48.14
61506;BME280;47366;51.916;4.574;2022-07-01T11:21:59;101816.13;;;22.44;48.74
61506;BME280;47366;51.916;4.574;2022-07-01T11:24:25;101833.16;;;22.20;47.93
61506;BME280;47366;51.916;4.574;2022-07-01T11:27:05;101846.00;;;21.61;48.14
61506;BME280;47366;51.916;4.574;2022-07-01T11:29:32;101842.31;;;21.01;50.78
61506;BME280;47366;51.916;4.574;2022-07-01T11:31:57;101855.13;;;20.81;50.65
61506;BME280;47366;51.916;4.574;2022-07-01T11:34:22;101858.19;;;20.46;50.79
61506;BME280;47366;51.916;4.574;2022-07-01T11:36:48;101856.72;;;20.42;50.14
61506;BME280;47366;51.916;4.574;2022-07-01T11:39:33;101869.88;;;20.38;52.43
61506;BME280;47366;51.916;4.574;2022-07-01T11:42:03;101868.47;;;20.11;51.52
61506;BME280;47366;51.916;4.574;2022-07-01T11:44:31;101865.53;;;20.03;51.04
61506;BME280;47366;51.916;4.574;2022-07-01T11:46:58;101880.69;;;19.98;52.47
61506;BME280;47366;51.916;4.574;2022-07-01T11:49:23;101884.59;;;19.84;53.71
61506;BME280;47366;51.916;4.574;2022-07-01T11:52:03;101888.00;;;19.76;55.02
61506;BME280;47366;51.916;4.574;2022-07-01T11:54:30;101894.00;;;19.70;55.64
61506;BME280;47366;51.916;4.574;2022-07-01T11:57:16;101899.75;;;19.67;56.88
61506;BME280;47366;51.916;4.574;2022-07-01T11:59:44;101897.75;;;19.58;57.60
61506;BME280;47366;51.916;4.574;2022-07-01T12:02:11;101898.03;;;19.43;58.90
61506;BME280;47366;51.916;4.574;2022-07-01T12:04:37;101907.88;;;19.23;58.54
61506;BME280;47366;51.916;4.574;2022-07-01T12:07:04;101912.38;;;19.13;59.20
61506;BME280;47366;51.916;4.574;2022-07-01T12:09:30;101915.88;;;19.15;60.32
61506;BME280;47366;51.916;4.574;2022-07-01T12:11:55;101919.88;;;19.11;60.48
61506;BME280;47366;51.916;4.574;2022-07-01T12:14:29;101905.00;;;19.14;60.42
61506;BME280;47366;51.916;4.574;2022-07-01T12:16:59;101887.03;;;19.32;61.63
61506;BME280;47366;51.916;4.574;2022-07-01T12:19:37;101907.22;;;19.65;61.18
61506;BME280;47366;51.916;4.574;2022-07-01T12:22:07;101905.94;;;19.91;60.44
61506;BME280;47366;51.916;4.574;2022-07-01T12:24:33;101913.94;;;19.94;60.23
61506;BME280;47366;51.916;4.574;2022-07-01T12:29:26;101908.91;;;20.00;60.42
61506;BME280;47366;51.916;4.574;2022-07-01T12:34:21;101911.56;;;19.90;60.47
61506;BME280;47366;51.916;4.574;2022-07-01T12:36:48;101922.44;;;19.91;60.33
61506;BME280;47366;51.916;4.574;2022-07-01T12:39:14;101907.75;;;19.81;60.65
61506;BME280;47366;51.916;4.574;2022-07-01T12:41:39;101930.09;;;19.88;60.04
61506;BME280;47366;51.916;4.574;2022-07-01T12:44:24;101928.50;;;19.74;60.71
61506;BME280;47366;51.916;4.574;2022-07-01T12:46:50;101915.97;;;19.59;60.93
61506;BME280;47366;51.916;4.574;2022-07-01T12:49:24;101917.25;;;19.55;62.30
61506;BME280;47366;51.916;4.574;2022-07-01T12:51:50;101922.25;;;19.38;61.84
61506;BME280;47366;51.916;4.574;2022-07-01T12:54:34;101911.53;;;19.24;62.64
61506;BME280;47366;51.916;4.574;2022-07-01T12:57:00;101921.88;;;19.20;62.12
61506;BME280;47366;51.916;4.574;2022-07-01T12:59:25;101917.75;;;19.15;62.95
61506;BME280;47366;51.916;4.574;2022-07-01T13:01:51;101924.13;;;19.15;62.48
61506;BME280;47366;51.916;4.574;2022-07-01T13:04:26;101919.25;;;19.30;63.63
61506;BME280;47366;51.916;4.574;2022-07-01T13:06:52;101923.00;;;19.29;63.07
61506;BME280;47366;51.916;4.574;2022-07-01T13:09:17;101918.25;;;19.20;62.18
61506;BME280;47366;51.916;4.574;2022-07-01T13:11:43;101925.84;;;19.16;62.58
61506;BME280;47366;51.916;4.574;2022-07-01T13:14:08;101917.84;;;19.02;61.95
61506;BME280;47366;51.916;4.574;2022-07-01T13:16:34;101917.13;;;19.00;62.07
61506;BME280;47366;51.916;4.574;2022-07-01T13:18:59;101909.25;;;18.95;63.08